createdAt,value
2018-07-25T00:00:07.847Z,13.10
2018-07-25T00:02:36.295Z,14.40
2018-07-25T00:05:05.277Z,13.90
2018-07-25T00:07:33.773Z,13.37
2018-07-25T00:10:02.203Z,12.50
2018-07-25T00:12:30.575Z,12.30
2018-07-25T00:14:59.369Z,13.13
2018-07-25T00:17:27.783Z,11.70
2018-07-25T00:19:56.243Z,12.10
2018-07-25T00:22:24.645Z,10.93
2018-07-25T00:24:53.099Z,11.40
2018-07-25T00:27:21.535Z,13.50
2018-07-25T00:29:49.963Z,12.17
2018-07-25T00:32:18.347Z,13.07
2018-07-25T00:34:46.789Z,15.27
2018-07-25T00:37:15.275Z,15.73
2018-07-25T00:39:43.687Z,16.30
2018-07-25T00:42:12.143Z,18.10
2018-07-25T00:44:40.543Z,16.53
2018-07-25T00:47:08.962Z,17.00
2018-07-25T00:49:37.459Z,17.77
2018-07-25T00:52:05.879Z,15.30
2018-07-25T00:54:34.373Z,13.10
2018-07-25T00:57:02.789Z,13.77
2018-07-25T00:59:31.195Z,13.53
2018-07-25T01:01:59.607Z,13.27
2018-07-25T01:04:28.003Z,15.83
2018-07-25T01:06:56.429Z,13.40
2018-07-25T01:09:24.803Z,13.90
2018-07-25T01:11:53.303Z,14.10
2018-07-25T01:14:22.285Z,13.33
2018-07-25T01:16:50.665Z,14.43
2018-07-25T01:19:19.145Z,13.10
2018-07-25T01:21:47.823Z,14.13
2018-07-25T01:24:16.263Z,13.93
2018-07-25T01:26:44.983Z,13.80
2018-07-25T01:29:14.077Z,15.07
2018-07-25T01:31:42.482Z,14.70
2018-07-25T01:34:10.872Z,13.47
2018-07-25T01:36:39.303Z,15.40
2018-07-25T01:39:09.099Z,14.10
2018-07-25T01:41:37.536Z,14.97
2018-07-25T01:44:06.383Z,15.67
2018-07-25T01:46:34.800Z,16.27
2018-07-25T01:49:03.323Z,16.20
2018-07-25T01:51:31.771Z,16.00
2018-07-25T01:54:00.199Z,15.80
2018-07-25T01:56:28.645Z,14.93
2018-07-25T01:58:57.119Z,16.60
2018-07-25T02:01:25.582Z,15.37
2018-07-25T02:03:54.029Z,15.33
2018-07-25T02:06:24.322Z,16.10
2018-07-25T02:08:54.251Z,16.37
2018-07-25T02:11:22.687Z,14.50
2018-07-25T02:13:51.339Z,15.20
2018-07-25T02:16:19.761Z,17.93
2018-07-25T02:18:48.184Z,15.23
2018-07-25T02:21:16.823Z,14.40
2018-07-25T02:23:45.215Z,16.73
2018-07-25T02:26:13.707Z,15.40
2018-07-25T02:28:42.116Z,16.00
2018-07-25T02:31:10.567Z,16.70
2018-07-25T02:33:44.312Z,16.00
2018-07-25T02:36:12.750Z,17.60
2018-07-25T02:38:41.150Z,16.20
2018-07-25T02:41:09.584Z,17.33
2018-07-25T02:43:38.145Z,16.87
2018-07-25T02:46:07.010Z,17.00
2018-07-25T02:48:35.583Z,16.20
2018-07-25T02:51:03.998Z,16.27
2018-07-25T02:53:32.420Z,16.33
2018-07-25T02:56:00.917Z,16.77
2018-07-25T02:58:29.300Z,17.00
2018-07-25T03:00:57.687Z,17.67
2018-07-25T03:03:26.159Z,17.33
2018-07-25T03:05:54.543Z,17.90
2018-07-25T03:08:22.945Z,17.10
2018-07-25T03:10:55.079Z,18.27
2018-07-25T03:13:24.275Z,17.57
2018-07-25T03:16:01.848Z,17.10
2018-07-25T03:18:30.337Z,17.20
2018-07-25T03:20:59.934Z,16.60
2018-07-25T03:23:29.159Z,15.60
2018-07-25T03:25:57.577Z,23.20
2018-07-25T03:28:26.731Z,16.93
2018-07-25T03:30:55.227Z,17.00
2018-07-25T03:33:24.728Z,17.50
2018-07-25T03:35:53.288Z,16.20
2018-07-25T03:38:21.706Z,16.77
2018-07-25T03:40:50.162Z,16.70
2018-07-25T03:43:18.588Z,16.90
2018-07-25T03:45:47.064Z,17.43
2018-07-25T03:48:15.459Z,16.37
2018-07-25T03:50:43.960Z,16.20
2018-07-25T03:53:12.401Z,17.30
2018-07-25T03:55:40.880Z,16.77
2018-07-25T03:58:09.383Z,18.80
2018-07-25T04:00:38.419Z,16.50
2018-07-25T04:03:06.595Z,18.40
2018-07-25T04:05:35.217Z,17.23
2018-07-25T04:08:03.619Z,18.83
2018-07-25T04:10:32.047Z,17.40
2018-07-25T04:13:00.477Z,18.30
2018-07-25T04:15:28.900Z,18.53
2018-07-25T04:17:57.310Z,18.97
2018-07-25T04:20:25.712Z,19.10
2018-07-25T04:22:54.117Z,19.70
2018-07-25T04:25:22.554Z,18.77
2018-07-25T04:27:50.937Z,19.77
2018-07-25T04:30:19.327Z,18.83
2018-07-25T04:32:47.692Z,18.70
2018-07-25T04:35:16.820Z,18.90
2018-07-25T04:37:45.488Z,18.50
2018-07-25T04:40:14.072Z,17.80
2018-07-25T04:42:42.471Z,17.80
2018-07-25T04:45:11.536Z,19.27
2018-07-25T04:47:40.429Z,19.63
2018-07-25T04:50:09.028Z,18.10
2018-07-25T04:52:37.818Z,21.00
2018-07-25T04:55:06.340Z,19.40
2018-07-25T04:57:34.760Z,20.40
2018-07-25T05:00:03.273Z,19.47
2018-07-25T05:02:31.713Z,18.63
2018-07-25T05:05:00.175Z,38.17
2018-07-25T05:07:28.924Z,25.27
2018-07-25T05:09:57.000Z,22.43
2018-07-25T05:12:25.485Z,21.37
2018-07-25T05:14:53.840Z,32.40
2018-07-25T05:17:22.284Z,24.70
2018-07-25T05:19:50.716Z,22.40
2018-07-25T05:22:19.202Z,20.83
2018-07-25T05:24:47.656Z,24.93
2018-07-25T05:27:16.080Z,21.67
2018-07-25T05:29:44.575Z,21.03
2018-07-25T05:32:13.045Z,21.47
2018-07-25T05:34:41.499Z,20.60
2018-07-25T05:37:10.041Z,21.23
2018-07-25T05:39:39.395Z,22.47
2018-07-25T05:42:07.837Z,24.00
2018-07-25T05:44:36.228Z,21.53
2018-07-25T05:47:04.776Z,20.50
2018-07-25T05:49:33.183Z,21.07
2018-07-25T05:52:01.569Z,18.43
2018-07-25T05:54:29.980Z,18.37
2018-07-25T05:56:58.379Z,22.47
2018-07-25T05:59:26.789Z,20.30
2018-07-25T06:01:55.188Z,19.83
2018-07-25T06:04:23.707Z,21.27
2018-07-25T06:06:52.057Z,19.60
2018-07-25T06:09:20.448Z,19.83
2018-07-25T06:11:48.868Z,21.27
2018-07-25T06:14:17.390Z,23.83
2018-07-25T06:16:45.742Z,21.27
2018-07-25T06:19:14.155Z,20.10
2018-07-25T06:21:43.921Z,19.43
2018-07-25T06:24:12.488Z,20.90
2018-07-25T06:26:40.896Z,24.03
2018-07-25T06:29:09.308Z,21.47
2018-07-25T06:31:37.734Z,24.20
2018-07-25T06:34:06.572Z,25.40
2018-07-25T06:36:34.976Z,22.17
2018-07-25T06:39:03.654Z,23.03
2018-07-25T06:41:33.784Z,24.47
2018-07-25T06:44:02.178Z,22.07
2018-07-25T06:46:30.688Z,23.57
2018-07-25T06:48:59.221Z,24.63
2018-07-25T06:51:27.622Z,24.27
2018-07-25T06:53:56.041Z,22.03
2018-07-25T06:56:24.454Z,27.00
2018-07-25T06:58:52.871Z,22.77
2018-07-25T07:01:21.399Z,24.10
2018-07-25T07:03:49.810Z,22.47
2018-07-25T07:06:18.267Z,24.07
2018-07-25T07:08:46.695Z,27.00
2018-07-25T07:11:15.207Z,23.53
2018-07-25T07:13:43.721Z,21.67
2018-07-25T07:16:12.111Z,24.73
2018-07-25T07:18:40.560Z,22.20
2018-07-25T07:21:08.967Z,25.23
2018-07-25T07:23:37.367Z,23.03
2018-07-25T07:26:06.061Z,26.53
2018-07-25T07:28:34.467Z,20.70
2018-07-25T07:31:02.897Z,22.77
2018-07-25T07:33:31.775Z,22.97
2018-07-25T07:36:00.268Z,21.00
2018-07-25T07:38:28.748Z,22.90
2018-07-25T07:40:57.340Z,22.57
2018-07-25T07:43:25.737Z,20.47
2018-07-25T07:45:54.151Z,20.57
2018-07-25T07:48:22.565Z,21.00
2018-07-25T07:50:51.133Z,20.83
2018-07-25T07:53:19.550Z,23.63
2018-07-25T07:55:47.943Z,20.17
2018-07-25T07:58:16.331Z,21.70
2018-07-25T08:00:44.729Z,23.07
2018-07-25T08:03:13.768Z,30.43
2018-07-25T08:05:42.289Z,21.83
2018-07-25T08:08:10.697Z,21.13
2018-07-25T08:10:39.152Z,19.50
2018-07-25T08:13:07.763Z,27.47
2018-07-25T08:15:36.224Z,21.07
2018-07-25T08:18:04.820Z,32.00
2018-07-25T08:20:33.236Z,20.47
2018-07-25T08:23:01.643Z,20.33
2018-07-25T08:25:30.100Z,20.37
2018-07-25T08:27:58.508Z,24.60
2018-07-25T08:30:26.905Z,22.43
2018-07-25T08:32:55.368Z,19.83
2018-07-25T08:35:23.838Z,21.13
2018-07-25T08:37:52.590Z,17.60
2018-07-25T08:40:20.992Z,21.07
2018-07-25T08:42:49.536Z,21.57
2018-07-25T08:45:17.972Z,24.80
2018-07-25T08:47:46.424Z,20.70
2018-07-25T08:50:14.832Z,24.93
2018-07-25T08:52:43.339Z,23.17
2018-07-25T08:55:11.663Z,26.83
2018-07-25T08:57:40.183Z,26.30
2018-07-25T09:00:08.708Z,27.13
2018-07-25T09:02:37.104Z,22.37
2018-07-25T09:05:05.697Z,26.50
2018-07-25T09:07:34.202Z,21.90
2018-07-25T09:10:02.612Z,20.47
2018-07-25T09:12:31.254Z,20.73
2018-07-25T09:14:59.698Z,21.70
2018-07-25T09:17:28.122Z,25.00
2018-07-25T09:19:56.948Z,22.17
2018-07-25T09:22:25.276Z,23.40
2018-07-25T09:24:53.689Z,23.83
2018-07-25T09:27:22.174Z,23.90
2018-07-25T09:29:50.648Z,21.97
2018-07-25T09:32:19.160Z,18.80
2018-07-25T09:34:47.668Z,20.97
2018-07-25T09:37:16.089Z,27.03
2018-07-25T09:39:44.540Z,21.30
2018-07-25T09:42:13.055Z,17.13
2018-07-25T09:44:41.463Z,19.80
2018-07-25T09:47:10.233Z,21.60
2018-07-25T09:49:38.518Z,22.47
2018-07-25T09:52:07.009Z,24.27
2018-07-25T09:54:35.553Z,20.70
2018-07-25T09:57:03.991Z,20.63
2018-07-25T09:59:32.428Z,18.60
2018-07-25T10:02:00.862Z,21.90
2018-07-25T10:04:29.349Z,18.40
2018-07-25T10:06:57.755Z,22.30
2018-07-25T10:09:26.153Z,21.20
2018-07-25T10:11:54.713Z,20.33
2018-07-25T10:14:23.121Z,20.10
2018-07-25T10:16:51.540Z,20.27
2018-07-25T10:19:19.943Z,18.53
2018-07-25T10:21:48.354Z,17.90
2018-07-25T10:24:17.003Z,24.27
2018-07-25T10:26:45.422Z,20.63
2018-07-25T10:29:13.807Z,18.00
2018-07-25T10:31:42.253Z,21.17
2018-07-25T10:34:10.673Z,18.10
2018-07-25T10:36:39.080Z,16.73
2018-07-25T10:39:08.769Z,18.67
2018-07-25T10:41:37.114Z,17.57
2018-07-25T10:44:05.954Z,17.83
2018-07-25T10:46:34.344Z,17.30
2018-07-25T10:49:02.952Z,17.07
2018-07-25T10:51:31.384Z,21.73
2018-07-25T10:53:59.788Z,17.20
2018-07-25T10:56:28.237Z,14.93
2018-07-25T10:58:56.785Z,15.17
2018-07-25T11:01:25.144Z,14.83
2018-07-25T11:03:53.573Z,17.73
2018-07-25T11:06:21.938Z,13.23
2018-07-25T11:08:50.407Z,12.73
2018-07-25T11:11:19.001Z,14.97
2018-07-25T11:13:47.402Z,14.03
2018-07-25T11:16:15.934Z,14.63
2018-07-25T11:18:44.372Z,12.90
2018-07-25T11:21:12.809Z,13.97
2018-07-25T11:23:41.294Z,14.40
2018-07-25T11:26:09.724Z,12.20
2018-07-25T11:28:38.148Z,13.40
2018-07-25T11:31:06.955Z,16.60
2018-07-25T11:33:35.400Z,12.50
2018-07-25T11:36:04.190Z,14.33
2018-07-25T11:38:32.621Z,12.77
2018-07-25T11:41:01.432Z,12.67
2018-07-25T11:43:29.928Z,12.30
2018-07-25T11:45:58.353Z,12.53
2018-07-25T11:48:26.988Z,11.20
2018-07-25T11:50:55.562Z,11.13
2018-07-25T11:53:23.991Z,10.97
2018-07-25T11:55:52.396Z,13.87
2018-07-25T11:58:20.842Z,12.17
2018-07-25T12:00:49.270Z,12.03
2018-07-25T12:03:17.696Z,13.03
2018-07-25T12:05:46.135Z,13.23
2018-07-25T12:08:14.615Z,11.40
2018-07-25T12:10:43.108Z,13.90
2018-07-25T12:13:11.527Z,10.90
2018-07-25T12:15:40.099Z,11.50
2018-07-25T12:18:08.609Z,10.30
2018-07-25T12:20:37.128Z,10.43
2018-07-25T12:23:05.535Z,10.33
2018-07-25T12:25:34.077Z,11.17
2018-07-25T12:28:02.586Z,12.33
2018-07-25T12:30:31.355Z,9.00
2018-07-25T12:32:59.807Z,8.97
2018-07-25T12:35:28.217Z,9.07
2018-07-25T12:37:56.665Z,8.60
2018-07-25T12:40:25.072Z,9.93
2018-07-25T12:42:53.777Z,8.47
2018-07-25T12:45:22.750Z,8.13
2018-07-25T12:47:51.294Z,8.70
2018-07-25T12:50:19.686Z,8.77
2018-07-25T12:52:48.132Z,10.03
2018-07-25T12:55:16.550Z,8.80
2018-07-25T12:57:44.992Z,8.30
2018-07-25T13:00:13.784Z,9.37
2018-07-25T13:02:42.206Z,8.77
2018-07-25T13:05:10.597Z,8.63
2018-07-25T13:07:39.021Z,8.10
2018-07-25T13:10:07.460Z,8.90
2018-07-25T13:12:35.879Z,8.33
2018-07-25T13:15:04.809Z,7.47
2018-07-25T13:17:33.233Z,7.90
2018-07-25T13:20:01.742Z,8.40
2018-07-25T13:22:30.177Z,8.90
2018-07-25T13:24:58.583Z,7.83
2018-07-25T13:27:27.013Z,8.30
2018-07-25T13:29:55.443Z,9.70
2018-07-25T13:32:23.851Z,8.80
2018-07-25T13:34:52.263Z,7.13
2018-07-25T13:37:20.691Z,11.17
2018-07-25T13:39:49.091Z,8.83
2018-07-25T13:42:17.585Z,8.23
2018-07-25T13:44:46.042Z,8.80
2018-07-25T13:47:14.531Z,10.10
2018-07-25T13:49:42.992Z,8.33
2018-07-25T13:52:11.405Z,11.60
2018-07-25T13:54:39.800Z,9.53
2018-07-25T13:57:08.377Z,10.43
2018-07-25T13:59:36.927Z,9.10
2018-07-25T14:02:05.360Z,10.90
2018-07-25T14:04:33.792Z,10.23
2018-07-25T14:07:02.670Z,10.10
2018-07-25T14:09:31.094Z,8.70
2018-07-25T14:11:59.811Z,10.17
2018-07-25T14:14:28.203Z,8.90
2018-07-25T14:16:57.295Z,8.30
2018-07-25T14:19:25.750Z,8.33
2018-07-25T14:21:54.208Z,8.87
2018-07-25T14:24:22.733Z,9.03
2018-07-25T14:26:51.205Z,8.00
2018-07-25T14:29:20.508Z,8.03
2018-07-25T14:31:49.440Z,9.00
2018-07-25T14:34:17.889Z,8.27
2018-07-25T14:36:46.389Z,8.20
2018-07-25T14:39:14.904Z,8.70
2018-07-25T14:41:43.484Z,7.57
2018-07-25T14:44:11.940Z,6.80
2018-07-25T14:46:40.552Z,7.07
2018-07-25T14:49:09.046Z,7.87
2018-07-25T14:51:37.595Z,7.50
2018-07-25T14:54:06.116Z,7.17
2018-07-25T14:56:35.684Z,7.50
2018-07-25T14:59:04.094Z,7.33
2018-07-25T15:01:32.980Z,6.90
2018-07-25T15:04:01.396Z,8.57
2018-07-25T15:06:29.866Z,6.73
2018-07-25T15:08:58.380Z,7.77
2018-07-25T15:11:27.630Z,6.63
2018-07-25T15:13:56.065Z,7.40
2018-07-25T15:16:24.568Z,7.37
2018-07-25T15:18:53.007Z,7.33
2018-07-25T15:21:21.457Z,8.93
2018-07-25T15:24:00.023Z,7.80
2018-07-25T15:26:29.594Z,7.00
2018-07-25T15:28:58.884Z,6.50
2018-07-25T15:31:27.612Z,7.40
2018-07-25T15:33:56.112Z,7.33
2018-07-25T15:36:43.940Z,7.87
2018-07-25T15:39:15.337Z,7.80
2018-07-25T15:41:45.180Z,7.40
2018-07-25T15:44:13.860Z,12.10
2018-07-25T15:46:42.771Z,9.30
2018-07-25T15:49:11.174Z,9.40
2018-07-25T15:51:40.306Z,8.87
2018-07-25T15:54:09.059Z,7.30
2018-07-25T15:56:38.230Z,7.27
2018-07-25T15:59:07.528Z,5.97
2018-07-25T16:01:35.999Z,6.10
2018-07-25T16:04:04.752Z,5.77
2018-07-25T16:06:33.169Z,6.10
2018-07-25T16:09:01.660Z,5.50
2018-07-25T16:11:30.252Z,5.67
2018-07-25T16:13:58.660Z,6.90
2018-07-25T16:16:27.062Z,5.90
2018-07-25T16:18:55.478Z,5.93
2018-07-25T16:21:23.864Z,6.57
2018-07-25T16:23:52.270Z,5.50
2018-07-25T16:26:20.700Z,6.17
2018-07-25T16:28:49.294Z,6.23
2018-07-25T16:31:17.952Z,6.03
2018-07-25T16:33:46.469Z,6.40
2018-07-25T16:36:14.910Z,5.80
2018-07-25T16:38:43.371Z,6.13
2018-07-25T16:41:11.957Z,5.90
2018-07-25T16:43:40.911Z,6.53
2018-07-25T16:46:09.334Z,7.33
2018-07-25T16:48:37.760Z,6.23
2018-07-25T16:51:06.257Z,6.30
2018-07-25T16:53:34.736Z,5.60
2018-07-25T16:56:03.184Z,5.93
2018-07-25T16:58:32.610Z,5.80
2018-07-25T17:01:01.037Z,7.03
2018-07-25T17:03:29.532Z,6.37
2018-07-25T17:05:57.960Z,6.80
2018-07-25T17:08:26.412Z,7.50
2018-07-25T17:10:54.951Z,8.40
2018-07-25T17:13:23.426Z,11.27
2018-07-25T17:15:51.856Z,6.77
2018-07-25T17:18:21.491Z,8.60
2018-07-25T17:20:51.448Z,9.37
2018-07-25T17:23:19.922Z,10.00
2018-07-25T17:25:48.355Z,8.03
2018-07-25T17:28:16.784Z,8.30
2018-07-25T17:30:45.692Z,7.60
2018-07-25T17:33:15.569Z,7.67
2018-07-25T17:35:43.944Z,8.20
2018-07-25T17:38:12.533Z,7.97
2018-07-25T17:40:41.951Z,8.30
2018-07-25T17:43:10.317Z,8.27
2018-07-25T17:45:38.786Z,10.33
2018-07-25T17:48:07.238Z,8.23
2018-07-25T17:50:35.610Z,7.40
2018-07-25T17:53:04.145Z,7.80
2018-07-25T17:55:32.684Z,9.20
2018-07-25T17:58:01.394Z,7.40
2018-07-25T18:00:30.026Z,11.53
2018-07-25T18:02:58.494Z,7.90
2018-07-25T18:05:27.044Z,11.10
2018-07-25T18:07:55.442Z,8.83
2018-07-25T18:13:06.047Z,10.37
2018-07-25T18:15:34.502Z,12.63
2018-07-25T18:18:02.912Z,14.10
2018-07-25T18:20:31.347Z,12.83
2018-07-25T18:22:59.857Z,13.90
2018-07-25T18:25:28.192Z,18.60
2018-07-25T18:27:56.603Z,9.00
2018-07-25T18:30:26.733Z,9.90
2018-07-25T18:32:55.303Z,10.20
2018-07-25T18:35:28.823Z,12.60
2018-07-25T18:37:57.580Z,10.03
2018-07-25T18:40:25.968Z,9.00
2018-07-25T18:42:54.377Z,9.10
2018-07-25T18:45:22.828Z,12.30
2018-07-25T18:47:51.300Z,9.40
2018-07-25T18:50:19.721Z,8.13
2018-07-25T18:52:48.110Z,10.07
2018-07-25T18:55:16.538Z,9.23
2018-07-25T18:57:44.956Z,13.80
2018-07-25T19:00:14.238Z,9.30
2018-07-25T19:02:42.894Z,9.73
2018-07-25T19:05:11.402Z,8.97
2018-07-25T19:07:39.774Z,9.53
2018-07-25T19:10:08.208Z,8.90
2018-07-25T19:12:36.711Z,8.60
2018-07-25T19:15:10.528Z,8.87
2018-07-25T19:17:38.972Z,10.17
2018-07-25T19:20:07.988Z,9.37
2018-07-25T19:22:36.412Z,9.00
2018-07-25T19:25:04.876Z,9.63
2018-07-25T19:27:33.261Z,9.23
2018-07-25T19:30:01.699Z,8.60
2018-07-25T19:32:30.531Z,10.07
2018-07-25T19:34:59.147Z,14.17
2018-07-25T19:37:27.508Z,10.80
2018-07-25T19:39:56.069Z,11.30
2018-07-25T19:42:24.493Z,9.33
2018-07-25T19:44:52.996Z,9.70
2018-07-25T19:47:21.430Z,10.10
2018-07-25T19:49:49.892Z,11.57
2018-07-25T19:52:18.366Z,12.17
2018-07-25T19:54:46.953Z,11.27
2018-07-25T19:57:15.546Z,8.80
2018-07-25T19:59:43.993Z,9.83
2018-07-25T20:02:12.503Z,12.60
2018-07-25T20:04:41.035Z,9.53
2018-07-25T20:07:09.659Z,9.43
2018-07-25T20:09:38.004Z,9.90
2018-07-25T20:12:06.597Z,9.20
2018-07-25T20:14:40.213Z,9.30
2018-07-25T20:17:08.730Z,9.77
2018-07-25T20:19:37.146Z,9.50
2018-07-25T20:22:05.593Z,9.57
2018-07-25T20:24:34.037Z,11.40
2018-07-25T20:27:02.647Z,9.57
2018-07-25T20:29:30.753Z,10.40
2018-07-25T20:31:59.161Z,8.97
2018-07-25T20:34:28.463Z,8.57
2018-07-25T20:36:56.964Z,8.20
2018-07-25T20:39:25.235Z,9.03
2018-07-25T20:41:53.700Z,9.13
2018-07-25T20:44:22.588Z,8.43
2018-07-25T20:46:51.124Z,9.00
2018-07-25T20:49:19.549Z,8.87
2018-07-25T20:51:48.010Z,8.27
2018-07-25T20:54:16.414Z,8.13
2018-07-25T20:56:44.836Z,10.03
2018-07-25T20:59:13.232Z,8.73
2018-07-25T21:01:41.624Z,8.67
2018-07-25T21:04:10.074Z,9.60
2018-07-25T21:06:38.655Z,9.93
2018-07-25T21:09:08.329Z,10.67
2018-07-25T21:11:36.779Z,8.00
2018-07-25T21:14:05.325Z,8.50
2018-07-25T21:16:34.010Z,12.43
2018-07-25T21:19:03.211Z,8.73
2018-07-25T21:21:31.619Z,8.43
2018-07-25T21:24:00.194Z,8.00
2018-07-25T21:26:28.612Z,8.00
2018-07-25T21:28:57.028Z,8.87
2018-07-25T21:31:25.639Z,7.77
2018-07-25T21:33:54.099Z,8.07
2018-07-25T21:36:22.487Z,8.83
2018-07-25T21:38:50.885Z,9.23
2018-07-25T21:41:19.321Z,11.57
2018-07-25T21:43:47.750Z,13.80
2018-07-25T21:46:16.206Z,9.80
2018-07-25T21:48:44.643Z,9.50
2018-07-25T21:51:13.057Z,8.90
2018-07-25T21:53:41.494Z,8.50
2018-07-25T21:56:09.929Z,8.50
2018-07-25T21:58:38.337Z,9.07
2018-07-25T22:01:13.383Z,8.43
2018-07-25T22:03:41.864Z,9.00
2018-07-25T22:06:10.346Z,13.60
2018-07-25T22:08:38.757Z,8.10
2018-07-25T22:11:07.207Z,8.17
2018-07-25T22:13:35.613Z,7.70
2018-07-25T22:16:04.050Z,8.40
2018-07-25T22:18:32.490Z,8.50
2018-07-25T22:21:00.972Z,7.70
2018-07-25T22:23:29.416Z,8.13
2018-07-25T22:25:57.858Z,8.17
2018-07-25T22:28:26.311Z,7.93
2018-07-25T22:30:54.732Z,8.93
2018-07-25T22:33:23.181Z,8.10
2018-07-25T22:35:51.645Z,7.73
2018-07-25T22:38:20.085Z,8.30
2018-07-25T22:40:48.463Z,9.03
2018-07-25T22:43:16.887Z,8.87
2018-07-25T22:45:45.353Z,9.33
2018-07-25T22:48:13.792Z,9.63
2018-07-25T22:50:42.238Z,9.57
2018-07-25T22:53:10.681Z,8.30
2018-07-25T22:55:39.356Z,8.83
2018-07-25T22:58:07.726Z,8.50
2018-07-25T23:00:36.369Z,9.07
2018-07-25T23:03:04.825Z,9.93
2018-07-25T23:05:33.267Z,13.33
2018-07-25T23:08:01.683Z,8.73
2018-07-25T23:10:30.119Z,8.10
2018-07-25T23:12:58.599Z,8.60
2018-07-25T23:15:27.067Z,13.97
2018-07-25T23:17:55.559Z,14.80
2018-07-25T23:20:26.493Z,11.20
2018-07-25T23:22:57.075Z,8.90
2018-07-25T23:25:25.993Z,8.90
2018-07-25T23:27:56.279Z,8.63
2018-07-25T23:30:25.508Z,11.40
2018-07-25T23:32:53.967Z,10.83
2018-07-25T23:35:22.635Z,8.20
2018-07-25T23:37:51.563Z,8.90
2018-07-25T23:40:20.236Z,11.17
2018-07-25T23:42:49.420Z,9.40
2018-07-25T23:45:17.988Z,9.87
2018-07-25T23:47:46.380Z,9.20
2018-07-25T23:50:14.804Z,11.70
2018-07-25T23:52:43.191Z,9.50
2018-07-25T23:55:11.644Z,12.43
2018-07-25T23:57:40.079Z,11.50
